Nancy Peterkin — WDI2121 — position and weather

sailwx.info

Track history (hours):
 
Tides and Currents Weather Stations Pressure Air Temp Water Temp Dewpoint Dewpoint Depression Visibility Wind Speed Wind Dir Waves Ship Positions

Nancy Peterkin

Owner: Kirby Offshore Marine, LLC, Seattle, WA. More information available from US FCC via Universal Licensing System and Coast Guard Vessel Documentation Center.

Last reported at 2017-Oct-18 00:01 UTC. Time now 2017-Oct-18 02:22 UTC.
Position N 33°44' W 118°13'.

Length 205 m; draft 5.6 m.

Type: . MMSI: 338134000.

Date/timePositionNaut miles runAvg speedWind from/ knotsBaromVisibWave heightAir tempDewpointWater temp
2017-Oct-18 00:01N 33°44' W 118°13'0 0.0
2017-Oct-17 23:58N 33°44' W 118°13'0 0.0
2017-Oct-17 19:58N 33°44' W 118°13'0 0.1
2017-Oct-17 19:28N 33°44' W 118°13'0 0.2
2017-Oct-17 18:52N 33°44' W 118°13'0 0.1
2017-Oct-17 18:28N 33°44' W 118°13'0 0.1
2017-Oct-17 17:58N 33°44' W 118°13'0 0.2
2017-Oct-17 17:28N 33°44' W 118°13'0 0.1
2017-Oct-17 17:00N 33°44' W 118°13'2 3.6
2017-Oct-17 16:31N 33°43' W 118°11'4 8.6
2017-Oct-17 16:00N 33°39' W 118°11'4 8.3
2017-Oct-17 15:30N 33°36' W 118°14'510.2
2017-Oct-17 15:00N 33°36' W 118°21'510.4
2017-Oct-17 14:30N 33°36' W 118°27'510.9
2017-Oct-17 14:00N 33°36' W 118°33'611.2
2017-Oct-17 13:30N 33°36' W 118°40'611.4
2017-Oct-17 12:56N 33°37' W 118°48'511.3
2017-Oct-17 12:30N 33°37' W 118°54'611.4
2017-Oct-17 12:00N 33°38' W 119°00'611.0
2017-Oct-17 11:30N 33°38' W 119°07'611.3
2017-Oct-17 11:00N 33°38' W 119°14'712.4
2017-Oct-17 10:28N 33°38' W 119°22'612.2
2017-Oct-17 10:00N 33°38' W 119°29'611.9
2017-Oct-17 09:30N 33°38' W 119°36'611.8
2017-Oct-17 09:00N 33°38' W 119°43'611.8
2017-Oct-17 08:27N 33°38' W 119°51'512.1
2017-Oct-17 08:00N 33°38' W 119°57'612.3
2017-Oct-17 07:30N 33°38' W 120°05'712.1
2017-Oct-17 06:57N 33°38' W 120°13'612.1
2017-Oct-17 06:30N 33°38' W 120°19'612.1
2017-Oct-17 05:59N 33°38' W 120°27'612.2
2017-Oct-17 05:30N 33°38' W 120°34'611.8
2017-Oct-17 05:00N 33°38' W 120°41'611.5
2017-Oct-17 04:29N 33°40' W 120°48'612.0
2017-Oct-17 04:00N 33°43' W 120°54'911.8
2017-Oct-17 03:15N 33°47' W 121°03'311.8
2017-Oct-17 02:58N 33°49' W 121°07'612.2
2017-Oct-17 02:28N 33°53' W 121°12'612.2
2017-Oct-17 01:59N 33°58' W 121°17'612.2
2017-Oct-17 01:30N 34°02' W 121°21'612.8
2017-Oct-17 01:00N 34°07' W 121°27'713.2
2017-Oct-17 00:30N 34°11' W 121°32'713.3
2017-Oct-17 00:00N 34°16' W 121°38'713.5
2017-Oct-16 23:30N 34°21' W 121°43'713.3
2017-Oct-16 23:00N 34°26' W 121°49'713.3
2017-Oct-16 22:30N 34°31' W 121°54'613.1
2017-Oct-16 22:00N 34°36' W 121°60'612.8
2017-Oct-16 21:30N 34°40' W 122°05'612.6
2017-Oct-16 21:00N 34°45' W 122°10'612.5
2017-Oct-16 20:30N 34°50' W 122°16'16611.7
2017-Oct-16 06:23N 37°28' W 123°16'512.5
2017-Oct-16 06:00N 37°31' W 123°11'510.3
2017-Oct-16 05:30N 37°33' W 123°06'510.0
2017-Oct-16 05:00N 37°36' W 123°00'510.2
2017-Oct-16 04:30N 37°39' W 122°55'510.1
2017-Oct-16 04:00N 37°42' W 122°50'611.0
2017-Oct-16 03:31N 37°45' W 122°44'611.5
2017-Oct-16 03:00N 37°46' W 122°37'510.9
2017-Oct-16 02:30N 37°49' W 122°31'4 7.8
2017-Oct-16 02:00N 37°50' W 122°26'4 7.4
2017-Oct-16 01:30N 37°54' W 122°26'5 9.5
2017-Oct-16 01:00N 37°59' W 122°26'510.6
2017-Oct-16 00:30N 38°02' W 122°21'510.2
2017-Oct-16 00:00N 38°04' W 122°15'5 9.1
2017-Oct-15 23:27N 38°02' W 122°09'1 0.1
2017-Oct-15 13:55N 38°02' W 122°08'0 0.0
2017-Oct-15 12:31N 38°02' W 122°08'0 0.1
2017-Oct-15 12:25N 38°02' W 122°08'0 0.0
2017-Oct-15 11:55N 38°02' W 122°08'0 0.0
2017-Oct-15 11:19N 38°02' W 122°08'0 0.0
2017-Oct-15 10:55N 38°02' W 122°08'0 0.0
2017-Oct-14 08:16N 38°02' W 122°08'0 0.0
2017-Oct-14 08:00N 38°02' W 122°08'0 0.0
2017-Oct-14 07:29N 38°02' W 122°08'0 0.0
2017-Oct-14 07:00N 38°02' W 122°08'0 0.0
2017-Oct-14 04:15N 38°02' W 122°08'0 1.2
2017-Oct-14 03:59N 38°02' W 122°08'4 8.1
2017-Oct-14 03:30N 38°04' W 122°13'612.3
2017-Oct-14 03:01N 38°03' W 122°20'612.1
2017-Oct-14 02:30N 37°59' W 122°26'611.3
2017-Oct-14 02:01N 37°53' W 122°25'4 7.4
2017-Oct-14 01:31N 37°50' W 122°27'612.5
2017-Oct-14 01:00N 37°47' W 122°34'510.7
2017-Oct-14 00:30N 37°44' W 122°40'4 8.7
2017-Oct-14 00:00N 37°42' W 122°45'5 9.1
2017-Oct-13 23:30N 37°39' W 122°49'5 9.7
2017-Oct-13 23:00N 37°36' W 122°54'510.6
2017-Oct-13 22:30N 37°33' W 123°00'611.1
2017-Oct-13 22:00N 37°30' W 123°06'510.5
2017-Oct-13 21:30N 37°26' W 123°10'510.4
2017-Oct-13 21:00N 37°21' W 123°10'610.4
2017-Oct-13 20:26N 37°15' W 123°10'510.2
2017-Oct-13 20:00N 37°10' W 123°10'1310.2
2017-Oct-13 18:45N 36°58' W 123°08'101 9.2
2017-Oct-13 07:46N 35°18' W 122°48'2 9.3
2017-Oct-13 07:30N 35°16' W 122°46'5 9.2
2017-Oct-13 07:00N 35°13' W 122°42'5 9.1
2017-Oct-13 06:30N 35°10' W 122°38'6 9.0
2017-Oct-13 05:51N 35°05' W 122°33'7 8.9
2017-Oct-13 05:04N 35°00' W 122°28'2 8.9
2017-Oct-13 04:47N 34°58' W 122°26'3 9.0
2017-Oct-13 04:30N 34°56' W 122°23'5 9.3
2017-Oct-13 04:00N 34°53' W 122°20'5 9.6
2017-Oct-13 03:30N 34°50' W 122°16'5 9.9
2017-Oct-13 03:00N 34°46' W 122°11'510.0
2017-Oct-13 02:30N 34°42' W 122°07'510.0
2017-Oct-13 02:00N 34°39' W 122°03'5 9.9
2017-Oct-13 01:30N 34°35' W 121°59'510.0
2017-Oct-13 01:00N 34°31' W 121°55'510.1
2017-Oct-13 00:30N 34°27' W 121°51'6 9.9
2017-Oct-12 23:52N 34°23' W 121°46'3 9.6
2017-Oct-12 23:30N 34°20' W 121°43'5 9.2
2017-Oct-12 23:00N 34°17' W 121°39'5 9.2
2017-Oct-12 22:29N 34°14' W 121°35'5 9.7
2017-Oct-12 22:00N 34°10' W 121°31'5 9.6
2017-Oct-12 21:30N 34°07' W 121°27'5 9.7
2017-Oct-12 20:58N 34°03' W 121°22'6 9.9
2017-Oct-12 20:25N 33°59' W 121°18'410.0
2017-Oct-12 20:00N 33°56' W 121°15'610.2
2017-Oct-12 19:26N 33°52' W 121°10'511.1
2017-Oct-12 18:59N 33°49' W 121°05'511.4
2017-Oct-12 18:30N 33°48' W 120°59'611.5
2017-Oct-12 18:00N 33°47' W 120°52'611.6
2017-Oct-12 17:30N 33°46' W 120°45'612.1
2017-Oct-12 17:00N 33°45' W 120°38'612.3
2017-Oct-12 16:30N 33°44' W 120°31'612.6
2017-Oct-12 16:00N 33°43' W 120°23'713.2
2017-Oct-12 15:30N 33°43' W 120°15'612.7
2017-Oct-12 15:00N 33°41' W 120°08'612.3
2017-Oct-12 14:31N 33°41' W 120°00'713.1
2017-Oct-12 14:00N 33°41' W 119°52'713.2
2017-Oct-12 13:30N 33°41' W 119°44'713.2
2017-Oct-12 13:00N 33°41' W 119°36'713.5
2017-Oct-12 12:30N 33°41' W 119°28'713.5
2017-Oct-12 12:00N 33°41' W 119°20'713.6
2017-Oct-12 11:30N 33°41' W 119°12'713.3
2017-Oct-12 11:00N 33°41' W 119°04'713.3
2017-Oct-12 10:31N 33°40' W 118°56'713.1
2017-Oct-12 10:00N 33°40' W 118°48'612.9
2017-Oct-12 09:31N 33°39' W 118°41'612.8
2017-Oct-12 09:00N 33°39' W 118°33'612.8
2017-Oct-12 08:31N 33°39' W 118°25'612.7
2017-Oct-12 08:01N 33°38' W 118°18'510.9
2017-Oct-12 07:31N 33°41' W 118°12'3 6.4
2017-Oct-12 07:00N 33°44' W 118°13'1 1.1
2017-Oct-12 06:31N 33°44' W 118°14'0 0.1
2017-Oct-12 05:56N 33°44' W 118°14'0 0.0
2017-Oct-12 05:26N 33°44' W 118°14'0 0.0
2017-Oct-12 05:00N 33°44' W 118°14'0 0.0
2017-Oct-12 03:51N 33°44' W 118°14'0 0.0
2017-Oct-12 02:45N 33°44' W 118°14'0 0.0
2017-Oct-12 02:27N 33°44' W 118°14'0 0.1
2017-Oct-12 01:57N 33°44' W 118°13'0 0.1
2017-Oct-12 01:26N 33°44' W 118°14'0 0.0
2017-Oct-12 00:59N 33°44' W 118°14'0 0.0
2017-Oct-12 00:29N 33°44' W 118°14'0 0.0
2017-Oct-11 23:59N 33°44' W 118°14'0 0.0
2017-Oct-11 23:26N 33°44' W 118°14'0 0.0
2017-Oct-11 22:56N 33°44' W 118°14'0 0.1
2017-Oct-11 22:26N 33°44' W 118°13'0 0.0
2017-Oct-11 21:59N 33°44' W 118°13'0 0.1
2017-Oct-11 21:26N 33°44' W 118°14'0 0.0
2017-Oct-11 20:56N 33°44' W 118°14'0 0.0
2017-Oct-11 20:14N 33°44' W 118°14'0 0.0
2017-Oct-11 19:59N 33°44' W 118°14'0 0.0
2017-Oct-11 19:29N 33°44' W 118°14'0 0.0
2017-Oct-11 18:59N 33°44' W 118°14'0 0.0
2017-Oct-11 18:29N 33°44' W 118°14'0 0.0
2017-Oct-11 17:59N 33°44' W 118°14'0 0.2
2017-Oct-11 17:29N 33°44' W 118°14'0 0.1
2017-Oct-11 16:59N 33°44' W 118°14'1 0.1
2017-Oct-10 23:56N 33°45' W 118°13'0 0.0
2017-Oct-10 23:29N 33°45' W 118°13'0 0.0
2017-Oct-10 22:59N 33°45' W 118°13'0 0.0
2017-Oct-10 22:29N 33°45' W 118°13'0 0.0
2017-Oct-10 21:59N 33°45' W 118°13'0 0.0
2017-Oct-10 21:26N 33°45' W 118°13'0 0.0
2017-Oct-10 20:59N 33°45' W 118°13'0 0.0
2017-Oct-10 20:29N 33°45' W 118°13'0 0.0
2017-Oct-10 19:59N 33°45' W 118°13'0 0.0
2017-Oct-10 19:29N 33°45' W 118°13'0 0.0
2017-Oct-10 18:59N 33°45' W 118°13'0 0.0
2017-Oct-10 18:29N 33°45' W 118°13'0 0.0
2017-Oct-10 17:59N 33°45' W 118°13'0 0.0
2017-Oct-10 17:29N 33°45' W 118°13'0 0.0
2017-Oct-10 16:59N 33°45' W 118°13'0 0.0
2017-Oct-10 16:29N 33°45' W 118°13'0 0.0
2017-Oct-10 15:59N 33°45' W 118°13'0 0.0
2017-Oct-10 15:29N 33°45' W 118°13'0 0.0
2017-Oct-10 14:59N 33°45' W 118°13'0 0.0
2017-Oct-10 13:59N 33°45' W 118°13'0 0.0
2017-Oct-10 13:29N 33°45' W 118°13'0 0.0
2017-Oct-10 12:56N 33°45' W 118°13'0 0.0
2017-Oct-10 12:29N 33°45' W 118°13'0 0.0
2017-Oct-10 11:59N 33°45' W 118°13'0 0.0
2017-Oct-10 11:29N 33°45' W 118°13'0 0.0
2017-Oct-10 10:59N 33°45' W 118°13'0 0.0
2017-Oct-10 10:29N 33°45' W 118°13'0 0.0
2017-Oct-10 09:59N 33°45' W 118°13'0 0.0
2017-Oct-10 09:29N 33°45' W 118°13'0 0.0
2017-Oct-10 08:59N 33°45' W 118°13'0 0.0
2017-Oct-10 08:29N 33°45' W 118°13'0 0.0
2017-Oct-10 07:59N 33°45' W 118°13'0 0.0
2017-Oct-10 07:29N 33°45' W 118°13'0 0.0
2017-Oct-10 06:59N 33°45' W 118°13'0 0.0
2017-Oct-10 06:29N 33°45' W 118°13'0 0.0
2017-Oct-10 05:56N 33°45' W 118°13'0 0.0
2017-Oct-10 05:29N 33°45' W 118°13'0 0.0
2017-Oct-10 04:59N 33°45' W 118°13'0 0.0
2017-Oct-10 04:26N 33°45' W 118°13'0 0.0
2017-Oct-10 03:59N 33°45' W 118°13'0 0.0
2017-Oct-10 03:29N 33°45' W 118°13'0 0.0
2017-Oct-10 02:59N 33°45' W 118°13'0 0.0
2017-Oct-10 02:29N 33°45' W 118°13'0 0.0
2017-Oct-10 01:59N 33°45' W 118°13'0 0.0
2017-Oct-10 01:29N 33°45' W 118°13'0 0.0
2017-Oct-10 00:56N 33°45' W 118°13'0 0.0
2017-Oct-10 00:29N 33°45' W 118°13'0 0.0
2017-Oct-09 23:53N 33°45' W 118°13'0 0.0
2017-Oct-09 23:29N 33°45' W 118°13'0 0.0
2017-Oct-09 22:59N 33°45' W 118°13'0 0.0
2017-Oct-09 22:29N 33°45' W 118°13'0 0.0
2017-Oct-09 21:59N 33°45' W 118°13'0 0.0
2017-Oct-09 21:29N 33°45' W 118°13'0 0.0
2017-Oct-09 20:59N 33°45' W 118°13'0 0.0
2017-Oct-09 20:29N 33°45' W 118°13'0 0.0
2017-Oct-09 20:00N 33°45' W 118°13'0 0.0
2017-Oct-09 19:30N 33°45' W 118°13'0 0.0
2017-Oct-09 19:00N 33°45' W 118°13'0 0.4
2017-Oct-09 18:29N 33°45' W 118°13'2 3.7
2017-Oct-09 18:00N 33°43' W 118°14'0 0.0
2017-Oct-09 17:25N 33°43' W 118°14'0 0.0
2017-Oct-09 16:32N 33°43' W 118°14'0 0.1
2017-Oct-09 16:25N 33°43' W 118°14'0 0.0
2017-Oct-09 08:55N 33°43' W 118°14'0 0.0
2017-Oct-09 06:43N 33°43' W 118°14'0 0.0
2017-Oct-09 06:22N 33°43' W 118°14'0 0.0
2017-Oct-09 04:58N 33°43' W 118°14'0 0.0
2017-Oct-09 04:25N 33°43' W 118°14'0 0.0
2017-Oct-09 03:58N 33°43' W 118°14'0 0.0
2017-Oct-09 03:28N 33°43' W 118°14'0 0.0
2017-Oct-09 02:58N 33°43' W 118°14'0 0.0
2017-Oct-09 02:25N 33°43' W 118°14'0 0.0
2017-Oct-09 01:58N 33°43' W 118°14'0 0.0
2017-Oct-09 01:28N 33°43' W 118°14'0 0.0
2017-Oct-09 00:58N 33°43' W 118°14'0 0.0
2017-Oct-09 00:25N 33°43' W 118°14'0 0.0
2017-Oct-08 23:52N 33°43' W 118°14'0 0.1
2017-Oct-08 23:28N 33°43' W 118°14'0 0.0
2017-Oct-08 22:58N 33°43' W 118°14'0 0.0
2017-Oct-08 22:28N 33°43' W 118°14'0 0.0
2017-Oct-08 21:58N 33°43' W 118°14'0 0.1
2017-Oct-08 21:25N 33°43' W 118°14'0 0.0
2017-Oct-08 20:55N 33°43' W 118°14'0 0.0
2017-Oct-08 20:28N 33°43' W 118°14'0 0.0
2017-Oct-08 19:46N 33°43' W 118°14'0 0.0
2017-Oct-08 19:16N 33°43' W 118°14'0 0.0
2017-Oct-08 18:55N 33°43' W 118°14'0 0.0
2017-Oct-08 18:25N 33°43' W 118°14'0 0.0
2017-Oct-08 17:58N 33°43' W 118°14'0 0.0
2017-Oct-08 17:28N 33°43' W 118°14'0 0.0
2017-Oct-08 16:58N 33°43' W 118°14'0 0.0
2017-Oct-08 16:28N 33°43' W 118°14'0 0.0
2017-Oct-08 15:58N 33°43' W 118°14'0 0.0
2017-Oct-08 15:28N 33°43' W 118°14'0 0.1
2017-Oct-08 14:58N 33°43' W 118°14'0 0.2
2017-Oct-08 14:22N 33°43' W 118°14'0 0.2
2017-Oct-08 14:00N 33°43' W 118°14'1 2.0
2017-Oct-08 13:30N 33°44' W 118°12'3 5.5
2017-Oct-08 13:00N 33°41' W 118°11'510.7
2017-Oct-08 12:30N 33°36' W 118°14'611.4
2017-Oct-08 12:00N 33°36' W 118°21'612.0
2017-Oct-08 11:30N 33°36' W 118°28'611.9
2017-Oct-08 11:00N 33°36' W 118°35'611.8
2017-Oct-08 10:30N 33°36' W 118°42'612.0
2017-Oct-08 10:00N 33°37' W 118°49'612.1
2017-Oct-08 09:30N 33°37' W 118°57'612.1
2017-Oct-08 09:00N 33°38' W 119°04'612.3
2017-Oct-08 08:30N 33°38' W 119°11'612.0
2017-Oct-08 08:00N 33°38' W 119°18'611.3
2017-Oct-08 07:30N 33°38' W 119°25'611.6
2017-Oct-08 07:00N 33°38' W 119°32'611.3
2017-Oct-08 06:30N 33°38' W 119°39'611.4
2017-Oct-08 06:00N 33°38' W 119°46'611.3
2017-Oct-08 05:26N 33°38' W 119°53'511.0
2017-Oct-08 05:00N 33°38' W 119°59'611.3
2017-Oct-08 04:30N 33°38' W 120°06'611.5
2017-Oct-08 03:59N 33°38' W 120°13'611.6
2017-Oct-08 03:30N 33°38' W 120°20'611.4
2017-Oct-08 03:00N 33°38' W 120°27'611.7
2017-Oct-08 02:29N 33°38' W 120°34'612.0
2017-Oct-08 01:59N 33°38' W 120°41'612.0
2017-Oct-08 01:30N 33°40' W 120°47'612.8
2017-Oct-08 01:00N 33°43' W 120°54'612.8
2017-Oct-08 00:30N 33°46' W 121°01'  
Track history (hours):
 
Tides and Currents Weather Stations Pressure Air Temp Water Temp Dewpoint Dewpoint Depression Visibility Wind Speed Wind Dir Waves Ship Positions

Nancy Peterkin

Owner: Kirby Offshore Marine, LLC, Seattle, WA. More information available from US FCC via Universal Licensing System and Coast Guard Vessel Documentation Center.

Last reported at 2017-Oct-18 00:01 UTC. Time now 2017-Oct-18 02:22 UTC.
Position N 33°44' W 118°13'.

Length 205 m; draft 5.6 m.

Type: . MMSI: 338134000.

Date/timePositionNaut miles runAvg speedWind from/ knotsBaromVisibWave heightAir tempDewpointWater temp
2017-Oct-18 00:01N 33°44' W 118°13'0 0.0
2017-Oct-17 23:58N 33°44' W 118°13'0 0.0
2017-Oct-17 19:58N 33°44' W 118°13'0 0.1
2017-Oct-17 19:28N 33°44' W 118°13'0 0.2
2017-Oct-17 18:52N 33°44' W 118°13'0 0.1
2017-Oct-17 18:28N 33°44' W 118°13'0 0.1
2017-Oct-17 17:58N 33°44' W 118°13'0 0.2
2017-Oct-17 17:28N 33°44' W 118°13'0 0.1
2017-Oct-17 17:00N 33°44' W 118°13'2 3.6
2017-Oct-17 16:31N 33°43' W 118°11'4 8.6
2017-Oct-17 16:00N 33°39' W 118°11'4 8.3
2017-Oct-17 15:30N 33°36' W 118°14'510.2
2017-Oct-17 15:00N 33°36' W 118°21'510.4
2017-Oct-17 14:30N 33°36' W 118°27'510.9
2017-Oct-17 14:00N 33°36' W 118°33'611.2
2017-Oct-17 13:30N 33°36' W 118°40'611.4
2017-Oct-17 12:56N 33°37' W 118°48'511.3
2017-Oct-17 12:30N 33°37' W 118°54'611.4
2017-Oct-17 12:00N 33°38' W 119°00'611.0
2017-Oct-17 11:30N 33°38' W 119°07'611.3
2017-Oct-17 11:00N 33°38' W 119°14'712.4
2017-Oct-17 10:28N 33°38' W 119°22'612.2
2017-Oct-17 10:00N 33°38' W 119°29'611.9
2017-Oct-17 09:30N 33°38' W 119°36'611.8
2017-Oct-17 09:00N 33°38' W 119°43'611.8
2017-Oct-17 08:27N 33°38' W 119°51'512.1
2017-Oct-17 08:00N 33°38' W 119°57'612.3
2017-Oct-17 07:30N 33°38' W 120°05'712.1
2017-Oct-17 06:57N 33°38' W 120°13'612.1
2017-Oct-17 06:30N 33°38' W 120°19'612.1
2017-Oct-17 05:59N 33°38' W 120°27'612.2
2017-Oct-17 05:30N 33°38' W 120°34'611.8
2017-Oct-17 05:00N 33°38' W 120°41'611.5
2017-Oct-17 04:29N 33°40' W 120°48'612.0
2017-Oct-17 04:00N 33°43' W 120°54'911.8
2017-Oct-17 03:15N 33°47' W 121°03'311.8
2017-Oct-17 02:58N 33°49' W 121°07'612.2
2017-Oct-17 02:28N 33°53' W 121°12'612.2
2017-Oct-17 01:59N 33°58' W 121°17'612.2
2017-Oct-17 01:30N 34°02' W 121°21'612.8
2017-Oct-17 01:00N 34°07' W 121°27'713.2
2017-Oct-17 00:30N 34°11' W 121°32'713.3
2017-Oct-17 00:00N 34°16' W 121°38'713.5
2017-Oct-16 23:30N 34°21' W 121°43'713.3
2017-Oct-16 23:00N 34°26' W 121°49'713.3
2017-Oct-16 22:30N 34°31' W 121°54'613.1
2017-Oct-16 22:00N 34°36' W 121°60'612.8
2017-Oct-16 21:30N 34°40' W 122°05'612.6
2017-Oct-16 21:00N 34°45' W 122°10'612.5
2017-Oct-16 20:30N 34°50' W 122°16'16611.7
2017-Oct-16 06:23N 37°28' W 123°16'512.5
2017-Oct-16 06:00N 37°31' W 123°11'510.3
2017-Oct-16 05:30N 37°33' W 123°06'510.0
2017-Oct-16 05:00N 37°36' W 123°00'510.2
2017-Oct-16 04:30N 37°39' W 122°55'510.1
2017-Oct-16 04:00N 37°42' W 122°50'611.0
2017-Oct-16 03:31N 37°45' W 122°44'611.5
2017-Oct-16 03:00N 37°46' W 122°37'510.9
2017-Oct-16 02:30N 37°49' W 122°31'4 7.8
2017-Oct-16 02:00N 37°50' W 122°26'4 7.4
2017-Oct-16 01:30N 37°54' W 122°26'5 9.5
2017-Oct-16 01:00N 37°59' W 122°26'510.6
2017-Oct-16 00:30N 38°02' W 122°21'510.2
2017-Oct-16 00:00N 38°04' W 122°15'5 9.1
2017-Oct-15 23:27N 38°02' W 122°09'1 0.1
2017-Oct-15 13:55N 38°02' W 122°08'0 0.0
2017-Oct-15 12:31N 38°02' W 122°08'0 0.1
2017-Oct-15 12:25N 38°02' W 122°08'0 0.0
2017-Oct-15 11:55N 38°02' W 122°08'0 0.0
2017-Oct-15 11:19N 38°02' W 122°08'0 0.0
2017-Oct-15 10:55N 38°02' W 122°08'0 0.0
2017-Oct-14 08:16N 38°02' W 122°08'0 0.0
2017-Oct-14 08:00N 38°02' W 122°08'0 0.0
2017-Oct-14 07:29N 38°02' W 122°08'0 0.0
2017-Oct-14 07:00N 38°02' W 122°08'0 0.0
2017-Oct-14 04:15N 38°02' W 122°08'0 1.2
2017-Oct-14 03:59N 38°02' W 122°08'4 8.1
2017-Oct-14 03:30N 38°04' W 122°13'612.3
2017-Oct-14 03:01N 38°03' W 122°20'612.1
2017-Oct-14 02:30N 37°59' W 122°26'611.3
2017-Oct-14 02:01N 37°53' W 122°25'4 7.4
2017-Oct-14 01:31N 37°50' W 122°27'612.5
2017-Oct-14 01:00N 37°47' W 122°34'510.7
2017-Oct-14 00:30N 37°44' W 122°40'4 8.7
2017-Oct-14 00:00N 37°42' W 122°45'5 9.1
2017-Oct-13 23:30N 37°39' W 122°49'5 9.7
2017-Oct-13 23:00N 37°36' W 122°54'510.6
2017-Oct-13 22:30N 37°33' W 123°00'611.1
2017-Oct-13 22:00N 37°30' W 123°06'510.5
2017-Oct-13 21:30N 37°26' W 123°10'510.4
2017-Oct-13 21:00N 37°21' W 123°10'610.4
2017-Oct-13 20:26N 37°15' W 123°10'510.2
2017-Oct-13 20:00N 37°10' W 123°10'1310.2
2017-Oct-13 18:45N 36°58' W 123°08'101 9.2
2017-Oct-13 07:46N 35°18' W 122°48'2 9.3
2017-Oct-13 07:30N 35°16' W 122°46'5 9.2
2017-Oct-13 07:00N 35°13' W 122°42'5 9.1
2017-Oct-13 06:30N 35°10' W 122°38'6 9.0
2017-Oct-13 05:51N 35°05' W 122°33'7 8.9
2017-Oct-13 05:04N 35°00' W 122°28'2 8.9
2017-Oct-13 04:47N 34°58' W 122°26'3 9.0
2017-Oct-13 04:30N 34°56' W 122°23'5 9.3
2017-Oct-13 04:00N 34°53' W 122°20'5 9.6
2017-Oct-13 03:30N 34°50' W 122°16'5 9.9
2017-Oct-13 03:00N 34°46' W 122°11'510.0
2017-Oct-13 02:30N 34°42' W 122°07'510.0
2017-Oct-13 02:00N 34°39' W 122°03'5 9.9
2017-Oct-13 01:30N 34°35' W 121°59'510.0
2017-Oct-13 01:00N 34°31' W 121°55'510.1
2017-Oct-13 00:30N 34°27' W 121°51'6 9.9
2017-Oct-12 23:52N 34°23' W 121°46'3 9.6
2017-Oct-12 23:30N 34°20' W 121°43'5 9.2
2017-Oct-12 23:00N 34°17' W 121°39'5 9.2
2017-Oct-12 22:29N 34°14' W 121°35'5 9.7
2017-Oct-12 22:00N 34°10' W 121°31'5 9.6
2017-Oct-12 21:30N 34°07' W 121°27'5 9.7
2017-Oct-12 20:58N 34°03' W 121°22'6 9.9
2017-Oct-12 20:25N 33°59' W 121°18'410.0
2017-Oct-12 20:00N 33°56' W 121°15'610.2
2017-Oct-12 19:26N 33°52' W 121°10'511.1
2017-Oct-12 18:59N 33°49' W 121°05'511.4
2017-Oct-12 18:30N 33°48' W 120°59'611.5
2017-Oct-12 18:00N 33°47' W 120°52'611.6
2017-Oct-12 17:30N 33°46' W 120°45'612.1
2017-Oct-12 17:00N 33°45' W 120°38'612.3
2017-Oct-12 16:30N 33°44' W 120°31'612.6
2017-Oct-12 16:00N 33°43' W 120°23'713.2
2017-Oct-12 15:30N 33°43' W 120°15'612.7
2017-Oct-12 15:00N 33°41' W 120°08'612.3
2017-Oct-12 14:31N 33°41' W 120°00'713.1
2017-Oct-12 14:00N 33°41' W 119°52'713.2
2017-Oct-12 13:30N 33°41' W 119°44'713.2
2017-Oct-12 13:00N 33°41' W 119°36'713.5
2017-Oct-12 12:30N 33°41' W 119°28'713.5
2017-Oct-12 12:00N 33°41' W 119°20'713.6
2017-Oct-12 11:30N 33°41' W 119°12'713.3
2017-Oct-12 11:00N 33°41' W 119°04'713.3
2017-Oct-12 10:31N 33°40' W 118°56'713.1
2017-Oct-12 10:00N 33°40' W 118°48'612.9
2017-Oct-12 09:31N 33°39' W 118°41'612.8
2017-Oct-12 09:00N 33°39' W 118°33'612.8
2017-Oct-12 08:31N 33°39' W 118°25'612.7
2017-Oct-12 08:01N 33°38' W 118°18'510.9
2017-Oct-12 07:31N 33°41' W 118°12'3 6.4
2017-Oct-12 07:00N 33°44' W 118°13'1 1.1
2017-Oct-12 06:31N 33°44' W 118°14'0 0.1
2017-Oct-12 05:56N 33°44' W 118°14'0 0.0
2017-Oct-12 05:26N 33°44' W 118°14'0 0.0
2017-Oct-12 05:00N 33°44' W 118°14'0 0.0
2017-Oct-12 03:51N 33°44' W 118°14'0 0.0
2017-Oct-12 02:45N 33°44' W 118°14'0 0.0
2017-Oct-12 02:27N 33°44' W 118°14'0 0.1
2017-Oct-12 01:57N 33°44' W 118°13'0 0.1
2017-Oct-12 01:26N 33°44' W 118°14'0 0.0
2017-Oct-12 00:59N 33°44' W 118°14'0 0.0
2017-Oct-12 00:29N 33°44' W 118°14'0 0.0
2017-Oct-11 23:59N 33°44' W 118°14'0 0.0
2017-Oct-11 23:26N 33°44' W 118°14'0 0.0
2017-Oct-11 22:56N 33°44' W 118°14'0 0.1
2017-Oct-11 22:26N 33°44' W 118°13'0 0.0
2017-Oct-11 21:59N 33°44' W 118°13'0 0.1
2017-Oct-11 21:26N 33°44' W 118°14'0 0.0
2017-Oct-11 20:56N 33°44' W 118°14'0 0.0
2017-Oct-11 20:14N 33°44' W 118°14'0 0.0
2017-Oct-11 19:59N 33°44' W 118°14'0 0.0
2017-Oct-11 19:29N 33°44' W 118°14'0 0.0
2017-Oct-11 18:59N 33°44' W 118°14'0 0.0
2017-Oct-11 18:29N 33°44' W 118°14'0 0.0
2017-Oct-11 17:59N 33°44' W 118°14'0 0.2
2017-Oct-11 17:29N 33°44' W 118°14'0 0.1
2017-Oct-11 16:59N 33°44' W 118°14'1 0.1
2017-Oct-10 23:56N 33°45' W 118°13'0 0.0
2017-Oct-10 23:29N 33°45' W 118°13'0 0.0
2017-Oct-10 22:59N 33°45' W 118°13'0 0.0
2017-Oct-10 22:29N 33°45' W 118°13'0 0.0
2017-Oct-10 21:59N 33°45' W 118°13'0 0.0
2017-Oct-10 21:26N 33°45' W 118°13'0 0.0
2017-Oct-10 20:59N 33°45' W 118°13'0 0.0
2017-Oct-10 20:29N 33°45' W 118°13'0 0.0
2017-Oct-10 19:59N 33°45' W 118°13'0 0.0
2017-Oct-10 19:29N 33°45' W 118°13'0 0.0
2017-Oct-10 18:59N 33°45' W 118°13'0 0.0
2017-Oct-10 18:29N 33°45' W 118°13'0 0.0
2017-Oct-10 17:59N 33°45' W 118°13'0 0.0
2017-Oct-10 17:29N 33°45' W 118°13'0 0.0
2017-Oct-10 16:59N 33°45' W 118°13'0 0.0
2017-Oct-10 16:29N 33°45' W 118°13'0 0.0
2017-Oct-10 15:59N 33°45' W 118°13'0 0.0
2017-Oct-10 15:29N 33°45' W 118°13'0 0.0
2017-Oct-10 14:59N 33°45' W 118°13'0 0.0
2017-Oct-10 13:59N 33°45' W 118°13'0 0.0
2017-Oct-10 13:29N 33°45' W 118°13'0 0.0
2017-Oct-10 12:56N 33°45' W 118°13'0 0.0
2017-Oct-10 12:29N 33°45' W 118°13'0 0.0
2017-Oct-10 11:59N 33°45' W 118°13'0 0.0
2017-Oct-10 11:29N 33°45' W 118°13'0 0.0
2017-Oct-10 10:59N 33°45' W 118°13'0 0.0
2017-Oct-10 10:29N 33°45' W 118°13'0 0.0
2017-Oct-10 09:59N 33°45' W 118°13'0 0.0
2017-Oct-10 09:29N 33°45' W 118°13'0 0.0
2017-Oct-10 08:59N 33°45' W 118°13'0 0.0
2017-Oct-10 08:29N 33°45' W 118°13'0 0.0
2017-Oct-10 07:59N 33°45' W 118°13'0 0.0
2017-Oct-10 07:29N 33°45' W 118°13'0 0.0
2017-Oct-10 06:59N 33°45' W 118°13'0 0.0
2017-Oct-10 06:29N 33°45' W 118°13'0 0.0
2017-Oct-10 05:56N 33°45' W 118°13'0 0.0
2017-Oct-10 05:29N 33°45' W 118°13'0 0.0
2017-Oct-10 04:59N 33°45' W 118°13'0 0.0
2017-Oct-10 04:26N 33°45' W 118°13'0 0.0
2017-Oct-10 03:59N 33°45' W 118°13'0 0.0
2017-Oct-10 03:29N 33°45' W 118°13'0 0.0
2017-Oct-10 02:59N 33°45' W 118°13'0 0.0
2017-Oct-10 02:29N 33°45' W 118°13'0 0.0
2017-Oct-10 01:59N 33°45' W 118°13'0 0.0
2017-Oct-10 01:29N 33°45' W 118°13'0 0.0
2017-Oct-10 00:56N 33°45' W 118°13'0 0.0
2017-Oct-10 00:29N 33°45' W 118°13'0 0.0
2017-Oct-09 23:53N 33°45' W 118°13'0 0.0
2017-Oct-09 23:29N 33°45' W 118°13'0 0.0
2017-Oct-09 22:59N 33°45' W 118°13'0 0.0
2017-Oct-09 22:29N 33°45' W 118°13'0 0.0
2017-Oct-09 21:59N 33°45' W 118°13'0 0.0
2017-Oct-09 21:29N 33°45' W 118°13'0 0.0
2017-Oct-09 20:59N 33°45' W 118°13'0 0.0
2017-Oct-09 20:29N 33°45' W 118°13'0 0.0
2017-Oct-09 20:00N 33°45' W 118°13'0 0.0
2017-Oct-09 19:30N 33°45' W 118°13'0 0.0
2017-Oct-09 19:00N 33°45' W 118°13'0 0.4
2017-Oct-09 18:29N 33°45' W 118°13'2 3.7
2017-Oct-09 18:00N 33°43' W 118°14'0 0.0
2017-Oct-09 17:25N 33°43' W 118°14'0 0.0
2017-Oct-09 16:32N 33°43' W 118°14'0 0.1
2017-Oct-09 16:25N 33°43' W 118°14'0 0.0
2017-Oct-09 08:55N 33°43' W 118°14'0 0.0
2017-Oct-09 06:43N 33°43' W 118°14'0 0.0
2017-Oct-09 06:22N 33°43' W 118°14'0 0.0
2017-Oct-09 04:58N 33°43' W 118°14'0 0.0
2017-Oct-09 04:25N 33°43' W 118°14'0 0.0
2017-Oct-09 03:58N 33°43' W 118°14'0 0.0
2017-Oct-09 03:28N 33°43' W 118°14'0 0.0
2017-Oct-09 02:58N 33°43' W 118°14'0 0.0
2017-Oct-09 02:25N 33°43' W 118°14'0 0.0
2017-Oct-09 01:58N 33°43' W 118°14'0 0.0
2017-Oct-09 01:28N 33°43' W 118°14'0 0.0
2017-Oct-09 00:58N 33°43' W 118°14'0 0.0
2017-Oct-09 00:25N 33°43' W 118°14'0 0.0
2017-Oct-08 23:52N 33°43' W 118°14'0 0.1
2017-Oct-08 23:28N 33°43' W 118°14'0 0.0
2017-Oct-08 22:58N 33°43' W 118°14'0 0.0
2017-Oct-08 22:28N 33°43' W 118°14'0 0.0
2017-Oct-08 21:58N 33°43' W 118°14'0 0.1
2017-Oct-08 21:25N 33°43' W 118°14'0 0.0
2017-Oct-08 20:55N 33°43' W 118°14'0 0.0
2017-Oct-08 20:28N 33°43' W 118°14'0 0.0
2017-Oct-08 19:46N 33°43' W 118°14'0 0.0
2017-Oct-08 19:16N 33°43' W 118°14'0 0.0
2017-Oct-08 18:55N 33°43' W 118°14'0 0.0
2017-Oct-08 18:25N 33°43' W 118°14'0 0.0
2017-Oct-08 17:58N 33°43' W 118°14'0 0.0
2017-Oct-08 17:28N 33°43' W 118°14'0 0.0
2017-Oct-08 16:58N 33°43' W 118°14'0 0.0
2017-Oct-08 16:28N 33°43' W 118°14'0 0.0
2017-Oct-08 15:58N 33°43' W 118°14'0 0.0
2017-Oct-08 15:28N 33°43' W 118°14'0 0.1
2017-Oct-08 14:58N 33°43' W 118°14'0 0.2
2017-Oct-08 14:22N 33°43' W 118°14'0 0.2
2017-Oct-08 14:00N 33°43' W 118°14'1 2.0
2017-Oct-08 13:30N 33°44' W 118°12'3 5.5
2017-Oct-08 13:00N 33°41' W 118°11'510.7
2017-Oct-08 12:30N 33°36' W 118°14'611.4
2017-Oct-08 12:00N 33°36' W 118°21'612.0
2017-Oct-08 11:30N 33°36' W 118°28'611.9
2017-Oct-08 11:00N 33°36' W 118°35'611.8
2017-Oct-08 10:30N 33°36' W 118°42'612.0
2017-Oct-08 10:00N 33°37' W 118°49'612.1
2017-Oct-08 09:30N 33°37' W 118°57'612.1
2017-Oct-08 09:00N 33°38' W 119°04'612.3
2017-Oct-08 08:30N 33°38' W 119°11'612.0
2017-Oct-08 08:00N 33°38' W 119°18'611.3
2017-Oct-08 07:30N 33°38' W 119°25'611.6
2017-Oct-08 07:00N 33°38' W 119°32'611.3
2017-Oct-08 06:30N 33°38' W 119°39'611.4
2017-Oct-08 06:00N 33°38' W 119°46'611.3
2017-Oct-08 05:26N 33°38' W 119°53'511.0
2017-Oct-08 05:00N 33°38' W 119°59'611.3
2017-Oct-08 04:30N 33°38' W 120°06'611.5
2017-Oct-08 03:59N 33°38' W 120°13'611.6
2017-Oct-08 03:30N 33°38' W 120°20'611.4
2017-Oct-08 03:00N 33°38' W 120°27'611.7
2017-Oct-08 02:29N 33°38' W 120°34'612.0
2017-Oct-08 01:59N 33°38' W 120°41'612.0
2017-Oct-08 01:30N 33°40' W 120°47'612.8
2017-Oct-08 01:00N 33°43' W 120°54'612.8
2017-Oct-08 00:30N 33°46' W 121°01'  

Dump ship's entire track history